sensor_id;sensor_type;location;lat;lon;timestamp;P1;durP1;ratioP1;P2;durP2;ratioP2
75823;SDS011;64457;51.976;9.834;2023-08-06T00:00:02;8.00;;;2.80;;
75823;SDS011;64457;51.976;9.834;2023-08-06T00:02:32;10.40;;;2.70;;
75823;SDS011;64457;51.976;9.834;2023-08-06T00:04:59;8.07;;;1.93;;
75823;SDS011;64457;51.976;9.834;2023-08-06T00:07:27;7.03;;;2.37;;
75823;SDS011;64457;51.976;9.834;2023-08-06T00:09:56;6.70;;;2.43;;
75823;SDS011;64457;51.976;9.834;2023-08-06T00:12:24;6.63;;;2.17;;
75823;SDS011;64457;51.976;9.834;2023-08-06T00:14:52;10.73;;;2.70;;
75823;SDS011;64457;51.976;9.834;2023-08-06T00:17:20;6.43;;;2.30;;
75823;SDS011;64457;51.976;9.834;2023-08-06T00:19:48;6.60;;;2.33;;
75823;SDS011;64457;51.976;9.834;2023-08-06T00:22:15;6.57;;;2.37;;
75823;SDS011;64457;51.976;9.834;2023-08-06T00:24:43;7.20;;;2.20;;
75823;SDS011;64457;51.976;9.834;2023-08-06T00:27:14;7.40;;;2.50;;
75823;SDS011;64457;51.976;9.834;2023-08-06T00:29:42;6.23;;;2.20;;
75823;SDS011;64457;51.976;9.834;2023-08-06T00:32:09;6.20;;;2.10;;
75823;SDS011;64457;51.976;9.834;2023-08-06T00:34:38;6.97;;;2.67;;
75823;SDS011;64457;51.976;9.834;2023-08-06T00:37:06;11.20;;;2.30;;
75823;SDS011;64457;51.976;9.834;2023-08-06T00:39:34;8.03;;;2.13;;
75823;SDS011;64457;51.976;9.834;2023-08-06T00:42:02;11.17;;;2.47;;
75823;SDS011;64457;51.976;9.834;2023-08-06T00:44:32;7.00;;;2.43;;
75823;SDS011;64457;51.976;9.834;2023-08-06T00:47:00;7.73;;;2.10;;
75823;SDS011;64457;51.976;9.834;2023-08-06T00:49:28;7.70;;;2.27;;
75823;SDS011;64457;51.976;9.834;2023-08-06T00:51:56;6.37;;;2.27;;
75823;SDS011;64457;51.976;9.834;2023-08-06T00:54:24;5.83;;;2.13;;
75823;SDS011;64457;51.976;9.834;2023-08-06T00:56:55;6.47;;;2.30;;
75823;SDS011;64457;51.976;9.834;2023-08-06T00:59:24;7.07;;;2.40;;
75823;SDS011;64457;51.976;9.834;2023-08-06T01:01:53;6.30;;;2.37;;
75823;SDS011;64457;51.976;9.834;2023-08-06T01:04:21;9.10;;;2.50;;
75823;SDS011;64457;51.976;9.834;2023-08-06T01:06:52;6.17;;;2.17;;
75823;SDS011;64457;51.976;9.834;2023-08-06T01:09:29;6.23;;;2.20;;
75823;SDS011;64457;51.976;9.834;2023-08-06T01:12:06;10.63;;;2.93;;
75823;SDS011;64457;51.976;9.834;2023-08-06T01:14:45;6.53;;;2.27;;
75823;SDS011;64457;51.976;9.834;2023-08-06T01:17:26;6.20;;;2.07;;
75823;SDS011;64457;51.976;9.834;2023-08-06T01:19:54;6.80;;;2.47;;
75823;SDS011;64457;51.976;9.834;2023-08-06T01:22:25;6.63;;;2.40;;
75823;SDS011;64457;51.976;9.834;2023-08-06T01:24:52;19.73;;;3.00;;
75823;SDS011;64457;51.976;9.834;2023-08-06T01:27:23;6.40;;;2.43;;
75823;SDS011;64457;51.976;9.834;2023-08-06T01:29:59;6.83;;;2.73;;
75823;SDS011;64457;51.976;9.834;2023-08-06T01:32:34;8.30;;;2.83;;
75823;SDS011;64457;51.976;9.834;2023-08-06T01:35:03;11.57;;;3.27;;
75823;SDS011;64457;51.976;9.834;2023-08-06T01:37:34;5.70;;;2.10;;
75823;SDS011;64457;51.976;9.834;2023-08-06T01:40:05;10.57;;;2.70;;
75823;SDS011;64457;51.976;9.834;2023-08-06T01:42:34;9.37;;;2.93;;
75823;SDS011;64457;51.976;9.834;2023-08-06T01:45:01;8.47;;;3.17;;
75823;SDS011;64457;51.976;9.834;2023-08-06T01:47:29;8.30;;;3.10;;
75823;SDS011;64457;51.976;9.834;2023-08-06T01:49:58;11.73;;;3.00;;
75823;SDS011;64457;51.976;9.834;2023-08-06T01:52:25;9.00;;;2.83;;
75823;SDS011;64457;51.976;9.834;2023-08-06T01:54:55;6.73;;;2.50;;
75823;SDS011;64457;51.976;9.834;2023-08-06T01:57:23;19.73;;;2.50;;
75823;SDS011;64457;51.976;9.834;2023-08-06T01:59:50;7.50;;;2.93;;
75823;SDS011;64457;51.976;9.834;2023-08-06T02:02:18;7.40;;;2.63;;
75823;SDS011;64457;51.976;9.834;2023-08-06T02:04:46;7.77;;;2.40;;
75823;SDS011;64457;51.976;9.834;2023-08-06T02:07:13;7.70;;;2.50;;
75823;SDS011;64457;51.976;9.834;2023-08-06T02:09:41;7.23;;;2.60;;
75823;SDS011;64457;51.976;9.834;2023-08-06T02:12:10;6.60;;;2.27;;
75823;SDS011;64457;51.976;9.834;2023-08-06T02:14:38;8.53;;;2.50;;
75823;SDS011;64457;51.976;9.834;2023-08-06T02:17:05;7.80;;;2.20;;
75823;SDS011;64457;51.976;9.834;2023-08-06T02:19:33;9.20;;;2.53;;
75823;SDS011;64457;51.976;9.834;2023-08-06T02:22:00;7.83;;;2.80;;
75823;SDS011;64457;51.976;9.834;2023-08-06T02:24:28;7.30;;;2.70;;
75823;SDS011;64457;51.976;9.834;2023-08-06T02:26:56;6.40;;;2.40;;
75823;SDS011;64457;51.976;9.834;2023-08-06T02:29:24;7.50;;;2.90;;
75823;SDS011;64457;51.976;9.834;2023-08-06T02:31:52;7.93;;;2.77;;
75823;SDS011;64457;51.976;9.834;2023-08-06T02:34:19;7.73;;;2.70;;
75823;SDS011;64457;51.976;9.834;2023-08-06T02:36:47;10.17;;;2.70;;
75823;SDS011;64457;51.976;9.834;2023-08-06T02:39:14;6.30;;;2.60;;
75823;SDS011;64457;51.976;9.834;2023-08-06T02:41:41;5.70;;;2.20;;
75823;SDS011;64457;51.976;9.834;2023-08-06T02:44:09;9.37;;;3.57;;
75823;SDS011;64457;51.976;9.834;2023-08-06T02:46:38;6.97;;;3.23;;
75823;SDS011;64457;51.976;9.834;2023-08-06T02:49:07;6.40;;;2.70;;
75823;SDS011;64457;51.976;9.834;2023-08-06T02:51:35;9.13;;;3.23;;
75823;SDS011;64457;51.976;9.834;2023-08-06T02:54:02;9.03;;;3.00;;
75823;SDS011;64457;51.976;9.834;2023-08-06T02:56:29;7.20;;;2.67;;
75823;SDS011;64457;51.976;9.834;2023-08-06T02:58:57;7.27;;;2.90;;
75823;SDS011;64457;51.976;9.834;2023-08-06T03:01:25;6.50;;;2.70;;
75823;SDS011;64457;51.976;9.834;2023-08-06T03:03:55;9.93;;;2.73;;
75823;SDS011;64457;51.976;9.834;2023-08-06T03:06:23;10.40;;;2.90;;
75823;SDS011;64457;51.976;9.834;2023-08-06T03:08:51;6.97;;;2.83;;
75823;SDS011;64457;51.976;9.834;2023-08-06T03:11:18;7.60;;;2.63;;
75823;SDS011;64457;51.976;9.834;2023-08-06T03:13:46;11.27;;;2.70;;
75823;SDS011;64457;51.976;9.834;2023-08-06T03:16:14;8.80;;;2.93;;
75823;SDS011;64457;51.976;9.834;2023-08-06T03:18:42;10.50;;;3.10;;
75823;SDS011;64457;51.976;9.834;2023-08-06T03:21:11;9.03;;;2.90;;
75823;SDS011;64457;51.976;9.834;2023-08-06T03:23:40;7.43;;;3.03;;
75823;SDS011;64457;51.976;9.834;2023-08-06T03:26:08;7.40;;;3.07;;
75823;SDS011;64457;51.976;9.834;2023-08-06T03:28:35;8.97;;;3.20;;
75823;SDS011;64457;51.976;9.834;2023-08-06T03:31:03;8.13;;;3.00;;
75823;SDS011;64457;51.976;9.834;2023-08-06T03:33:31;8.77;;;3.43;;
75823;SDS011;64457;51.976;9.834;2023-08-06T03:35:59;7.23;;;3.13;;
75823;SDS011;64457;51.976;9.834;2023-08-06T03:38:28;14.10;;;3.70;;
75823;SDS011;64457;51.976;9.834;2023-08-06T03:40:56;7.87;;;3.40;;
75823;SDS011;64457;51.976;9.834;2023-08-06T03:43:24;8.63;;;3.57;;
75823;SDS011;64457;51.976;9.834;2023-08-06T03:45:53;10.73;;;3.10;;
75823;SDS011;64457;51.976;9.834;2023-08-06T03:48:23;7.00;;;3.00;;
75823;SDS011;64457;51.976;9.834;2023-08-06T03:50:50;7.27;;;3.13;;
75823;SDS011;64457;51.976;9.834;2023-08-06T03:53:18;9.33;;;3.10;;
75823;SDS011;64457;51.976;9.834;2023-08-06T03:55:47;11.17;;;3.23;;
75823;SDS011;64457;51.976;9.834;2023-08-06T03:58:14;8.17;;;3.10;;
75823;SDS011;64457;51.976;9.834;2023-08-06T04:00:42;27.87;;;3.50;;
75823;SDS011;64457;51.976;9.834;2023-08-06T04:03:09;9.00;;;3.10;;
75823;SDS011;64457;51.976;9.834;2023-08-06T04:05:36;18.40;;;3.40;;
75823;SDS011;64457;51.976;9.834;2023-08-06T04:08:04;8.87;;;3.27;;
75823;SDS011;64457;51.976;9.834;2023-08-06T04:10:32;9.03;;;3.00;;
75823;SDS011;64457;51.976;9.834;2023-08-06T04:13:02;24.90;;;3.70;;
75823;SDS011;64457;51.976;9.834;2023-08-06T04:15:29;7.57;;;2.70;;
75823;SDS011;64457;51.976;9.834;2023-08-06T04:18:00;8.10;;;3.10;;
75823;SDS011;64457;51.976;9.834;2023-08-06T04:20:29;9.43;;;2.90;;
75823;SDS011;64457;51.976;9.834;2023-08-06T04:22:57;9.80;;;3.00;;
75823;SDS011;64457;51.976;9.834;2023-08-06T04:25:24;7.03;;;2.90;;
75823;SDS011;64457;51.976;9.834;2023-08-06T04:27:52;7.07;;;3.10;;
75823;SDS011;64457;51.976;9.834;2023-08-06T04:30:21;9.20;;;3.37;;
75823;SDS011;64457;51.976;9.834;2023-08-06T04:32:49;7.37;;;3.03;;
75823;SDS011;64457;51.976;9.834;2023-08-06T04:35:17;8.80;;;3.40;;
75823;SDS011;64457;51.976;9.834;2023-08-06T04:37:44;8.40;;;3.60;;
75823;SDS011;64457;51.976;9.834;2023-08-06T04:40:12;8.90;;;3.30;;
75823;SDS011;64457;51.976;9.834;2023-08-06T04:42:40;7.83;;;3.50;;
75823;SDS011;64457;51.976;9.834;2023-08-06T04:45:07;7.03;;;3.33;;
75823;SDS011;64457;51.976;9.834;2023-08-06T04:47:40;9.80;;;3.70;;
75823;SDS011;64457;51.976;9.834;2023-08-06T04:50:09;8.10;;;3.90;;
75823;SDS011;64457;51.976;9.834;2023-08-06T04:52:37;9.53;;;3.27;;
75823;SDS011;64457;51.976;9.834;2023-08-06T04:55:04;9.57;;;3.27;;
75823;SDS011;64457;51.976;9.834;2023-08-06T04:57:33;6.63;;;3.10;;
75823;SDS011;64457;51.976;9.834;2023-08-06T05:00:00;8.67;;;3.37;;
75823;SDS011;64457;51.976;9.834;2023-08-06T05:02:29;9.80;;;3.27;;
75823;SDS011;64457;51.976;9.834;2023-08-06T05:05:00;8.30;;;3.20;;
75823;SDS011;64457;51.976;9.834;2023-08-06T05:07:29;8.70;;;3.70;;
75823;SDS011;64457;51.976;9.834;2023-08-06T05:09:56;8.37;;;2.90;;
75823;SDS011;64457;51.976;9.834;2023-08-06T05:12:26;10.67;;;3.40;;
75823;SDS011;64457;51.976;9.834;2023-08-06T05:14:54;7.80;;;3.03;;
75823;SDS011;64457;51.976;9.834;2023-08-06T05:17:21;7.17;;;3.30;;
75823;SDS011;64457;51.976;9.834;2023-08-06T05:19:49;8.60;;;3.37;;
75823;SDS011;64457;51.976;9.834;2023-08-06T05:22:19;7.17;;;3.27;;
75823;SDS011;64457;51.976;9.834;2023-08-06T05:24:46;12.80;;;3.03;;
75823;SDS011;64457;51.976;9.834;2023-08-06T05:27:15;6.57;;;2.87;;
75823;SDS011;64457;51.976;9.834;2023-08-06T05:29:44;11.63;;;2.60;;
75823;SDS011;64457;51.976;9.834;2023-08-06T05:32:12;6.73;;;2.60;;
75823;SDS011;64457;51.976;9.834;2023-08-06T05:34:39;6.43;;;2.47;;
75823;SDS011;64457;51.976;9.834;2023-08-06T05:37:07;8.30;;;2.40;;
75823;SDS011;64457;51.976;9.834;2023-08-06T05:39:36;9.10;;;2.70;;
75823;SDS011;64457;51.976;9.834;2023-08-06T05:42:04;6.07;;;2.20;;
75823;SDS011;64457;51.976;9.834;2023-08-06T05:44:32;8.87;;;2.40;;
75823;SDS011;64457;51.976;9.834;2023-08-06T05:47:01;7.30;;;2.23;;
75823;SDS011;64457;51.976;9.834;2023-08-06T05:49:29;7.63;;;2.43;;
75823;SDS011;64457;51.976;9.834;2023-08-06T05:51:59;6.10;;;1.90;;
75823;SDS011;64457;51.976;9.834;2023-08-06T05:54:28;6.47;;;2.10;;
75823;SDS011;64457;51.976;9.834;2023-08-06T05:56:57;6.13;;;1.77;;
75823;SDS011;64457;51.976;9.834;2023-08-06T05:59:25;5.70;;;1.80;;
75823;SDS011;64457;51.976;9.834;2023-08-06T06:01:52;7.00;;;1.97;;
75823;SDS011;64457;51.976;9.834;2023-08-06T06:04:21;4.87;;;1.43;;
75823;SDS011;64457;51.976;9.834;2023-08-06T06:06:48;5.70;;;1.40;;
75823;SDS011;64457;51.976;9.834;2023-08-06T06:09:16;6.80;;;1.40;;
75823;SDS011;64457;51.976;9.834;2023-08-06T06:11:43;9.17;;;1.70;;
75823;SDS011;64457;51.976;9.834;2023-08-06T06:14:12;11.03;;;1.50;;
75823;SDS011;64457;51.976;9.834;2023-08-06T06:16:40;6.33;;;1.47;;
75823;SDS011;64457;51.976;9.834;2023-08-06T06:19:07;4.93;;;1.30;;
75823;SDS011;64457;51.976;9.834;2023-08-06T06:21:35;6.40;;;1.77;;
75823;SDS011;64457;51.976;9.834;2023-08-06T06:24:03;6.63;;;1.20;;
75823;SDS011;64457;51.976;9.834;2023-08-06T06:26:31;5.00;;;1.20;;
75823;SDS011;64457;51.976;9.834;2023-08-06T06:28:58;8.03;;;1.90;;
75823;SDS011;64457;51.976;9.834;2023-08-06T06:31:27;6.73;;;1.53;;
75823;SDS011;64457;51.976;9.834;2023-08-06T06:33:55;4.53;;;1.20;;
75823;SDS011;64457;51.976;9.834;2023-08-06T06:36:22;7.10;;;1.50;;
75823;SDS011;64457;51.976;9.834;2023-08-06T06:38:50;4.33;;;1.30;;
75823;SDS011;64457;51.976;9.834;2023-08-06T06:41:18;4.13;;;1.13;;
75823;SDS011;64457;51.976;9.834;2023-08-06T06:43:47;3.90;;;1.00;;
75823;SDS011;64457;51.976;9.834;2023-08-06T06:46:14;8.03;;;1.10;;
75823;SDS011;64457;51.976;9.834;2023-08-06T06:48:43;6.50;;;1.07;;
75823;SDS011;64457;51.976;9.834;2023-08-06T06:51:11;4.43;;;1.20;;
75823;SDS011;64457;51.976;9.834;2023-08-06T06:53:39;3.73;;;1.10;;
75823;SDS011;64457;51.976;9.834;2023-08-06T06:56:09;5.20;;;1.27;;
75823;SDS011;64457;51.976;9.834;2023-08-06T06:58:37;4.33;;;1.20;;
75823;SDS011;64457;51.976;9.834;2023-08-06T07:01:06;6.80;;;1.20;;
75823;SDS011;64457;51.976;9.834;2023-08-06T07:03:35;4.40;;;1.20;;
75823;SDS011;64457;51.976;9.834;2023-08-06T07:06:06;3.07;;;0.80;;
75823;SDS011;64457;51.976;9.834;2023-08-06T07:08:34;3.53;;;1.00;;
75823;SDS011;64457;51.976;9.834;2023-08-06T07:11:01;4.10;;;1.17;;
75823;SDS011;64457;51.976;9.834;2023-08-06T07:13:30;3.80;;;1.03;;
75823;SDS011;64457;51.976;9.834;2023-08-06T07:15:58;3.40;;;1.00;;
75823;SDS011;64457;51.976;9.834;2023-08-06T07:18:26;10.00;;;1.77;;
75823;SDS011;64457;51.976;9.834;2023-08-06T07:20:54;4.40;;;1.30;;
75823;SDS011;64457;51.976;9.834;2023-08-06T07:23:25;3.20;;;1.10;;
75823;SDS011;64457;51.976;9.834;2023-08-06T07:25:54;3.43;;;1.03;;
75823;SDS011;64457;51.976;9.834;2023-08-06T07:28:22;2.60;;;0.90;;
75823;SDS011;64457;51.976;9.834;2023-08-06T07:30:50;4.90;;;1.00;;
75823;SDS011;64457;51.976;9.834;2023-08-06T07:33:19;2.70;;;1.00;;
75823;SDS011;64457;51.976;9.834;2023-08-06T07:35:47;5.03;;;1.13;;
75823;SDS011;64457;51.976;9.834;2023-08-06T07:38:15;3.67;;;1.30;;
75823;SDS011;64457;51.976;9.834;2023-08-06T07:40:45;2.80;;;1.13;;
75823;SDS011;64457;51.976;9.834;2023-08-06T07:43:12;5.23;;;1.10;;
75823;SDS011;64457;51.976;9.834;2023-08-06T07:45:40;2.80;;;1.00;;
75823;SDS011;64457;51.976;9.834;2023-08-06T07:48:08;3.60;;;1.23;;
75823;SDS011;64457;51.976;9.834;2023-08-06T07:50:35;3.00;;;1.17;;
75823;SDS011;64457;51.976;9.834;2023-08-06T07:53:05;3.50;;;1.13;;
75823;SDS011;64457;51.976;9.834;2023-08-06T07:55:32;2.67;;;1.00;;
75823;SDS011;64457;51.976;9.834;2023-08-06T07:58:01;2.47;;;0.90;;
75823;SDS011;64457;51.976;9.834;2023-08-06T08:00:31;3.83;;;1.00;;
75823;SDS011;64457;51.976;9.834;2023-08-06T08:02:59;9.80;;;1.10;;
75823;SDS011;64457;51.976;9.834;2023-08-06T08:05:26;4.07;;;1.00;;
75823;SDS011;64457;51.976;9.834;2023-08-06T08:07:54;4.33;;;1.17;;
75823;SDS011;64457;51.976;9.834;2023-08-06T08:10:22;2.87;;;1.20;;
75823;SDS011;64457;51.976;9.834;2023-08-06T08:12:49;4.20;;;1.33;;
75823;SDS011;64457;51.976;9.834;2023-08-06T08:15:18;3.60;;;1.40;;
75823;SDS011;64457;51.976;9.834;2023-08-06T08:17:46;4.40;;;1.40;;
75823;SDS011;64457;51.976;9.834;2023-08-06T08:20:16;2.80;;;1.20;;
75823;SDS011;64457;51.976;9.834;2023-08-06T08:22:45;4.83;;;1.10;;
75823;SDS011;64457;51.976;9.834;2023-08-06T08:25:12;2.93;;;1.10;;
75823;SDS011;64457;51.976;9.834;2023-08-06T08:27:40;3.67;;;1.50;;
75823;SDS011;64457;51.976;9.834;2023-08-06T08:30:08;3.83;;;1.23;;
75823;SDS011;64457;51.976;9.834;2023-08-06T08:32:38;6.93;;;1.60;;
75823;SDS011;64457;51.976;9.834;2023-08-06T08:35:05;4.60;;;1.33;;
75823;SDS011;64457;51.976;9.834;2023-08-06T08:37:33;6.30;;;1.70;;
75823;SDS011;64457;51.976;9.834;2023-08-06T08:40:01;4.00;;;1.50;;
75823;SDS011;64457;51.976;9.834;2023-08-06T08:42:30;3.90;;;1.30;;
75823;SDS011;64457;51.976;9.834;2023-08-06T08:44:58;4.23;;;1.33;;
75823;SDS011;64457;51.976;9.834;2023-08-06T08:47:26;7.37;;;1.70;;
75823;SDS011;64457;51.976;9.834;2023-08-06T08:49:56;5.53;;;1.23;;
75823;SDS011;64457;51.976;9.834;2023-08-06T08:52:25;4.33;;;1.40;;
75823;SDS011;64457;51.976;9.834;2023-08-06T08:54:56;3.93;;;1.23;;
75823;SDS011;64457;51.976;9.834;2023-08-06T08:57:25;4.60;;;1.70;;
75823;SDS011;64457;51.976;9.834;2023-08-06T08:59:52;4.47;;;1.60;;
75823;SDS011;64457;51.976;9.834;2023-08-06T09:02:21;4.20;;;1.50;;
75823;SDS011;64457;51.976;9.834;2023-08-06T09:04:50;3.80;;;1.37;;
75823;SDS011;64457;51.976;9.834;2023-08-06T09:07:21;5.07;;;1.63;;
75823;SDS011;64457;51.976;9.834;2023-08-06T09:09:50;3.40;;;1.30;;
75823;SDS011;64457;51.976;9.834;2023-08-06T09:12:20;4.50;;;1.40;;
75823;SDS011;64457;51.976;9.834;2023-08-06T09:14:49;4.90;;;1.60;;
75823;SDS011;64457;51.976;9.834;2023-08-06T09:17:21;6.93;;;2.00;;
75823;SDS011;64457;51.976;9.834;2023-08-06T09:19:49;3.77;;;1.40;;
75823;SDS011;64457;51.976;9.834;2023-08-06T09:22:16;7.70;;;1.87;;
75823;SDS011;64457;51.976;9.834;2023-08-06T09:24:46;3.83;;;1.40;;
75823;SDS011;64457;51.976;9.834;2023-08-06T09:27:14;5.67;;;1.40;;
75823;SDS011;64457;51.976;9.834;2023-08-06T09:29:42;7.80;;;1.53;;
75823;SDS011;64457;51.976;9.834;2023-08-06T09:32:10;4.53;;;1.40;;
75823;SDS011;64457;51.976;9.834;2023-08-06T09:34:39;4.47;;;1.50;;
75823;SDS011;64457;51.976;9.834;2023-08-06T09:37:10;5.00;;;1.47;;
75823;SDS011;64457;51.976;9.834;2023-08-06T09:39:38;5.97;;;1.63;;
75823;SDS011;64457;51.976;9.834;2023-08-06T09:42:08;4.30;;;1.50;;
75823;SDS011;64457;51.976;9.834;2023-08-06T09:44:36;4.87;;;1.77;;
75823;SDS011;64457;51.976;9.834;2023-08-06T09:47:08;6.77;;;1.87;;
75823;SDS011;64457;51.976;9.834;2023-08-06T09:49:43;4.47;;;1.87;;
75823;SDS011;64457;51.976;9.834;2023-08-06T09:52:11;6.20;;;1.60;;
75823;SDS011;64457;51.976;9.834;2023-08-06T09:54:43;5.30;;;1.77;;
75823;SDS011;64457;51.976;9.834;2023-08-06T09:57:13;5.10;;;1.80;;
75823;SDS011;64457;51.976;9.834;2023-08-06T09:59:42;6.30;;;1.83;;
75823;SDS011;64457;51.976;9.834;2023-08-06T10:02:13;5.57;;;1.73;;
75823;SDS011;64457;51.976;9.834;2023-08-06T10:04:42;6.90;;;2.00;;
75823;SDS011;64457;51.976;9.834;2023-08-06T10:07:13;4.87;;;1.70;;
75823;SDS011;64457;51.976;9.834;2023-08-06T10:09:42;5.83;;;1.93;;
75823;SDS011;64457;51.976;9.834;2023-08-06T10:12:10;4.90;;;1.80;;
75823;SDS011;64457;51.976;9.834;2023-08-06T10:14:39;5.37;;;1.80;;
75823;SDS011;64457;51.976;9.834;2023-08-06T10:17:09;6.13;;;2.00;;
75823;SDS011;64457;51.976;9.834;2023-08-06T10:19:37;6.70;;;1.70;;
75823;SDS011;64457;51.976;9.834;2023-08-06T10:22:08;7.53;;;2.37;;
75823;SDS011;64457;51.976;9.834;2023-08-06T10:24:48;5.53;;;2.03;;
75823;SDS011;64457;51.976;9.834;2023-08-06T10:27:28;4.93;;;1.80;;
75823;SDS011;64457;51.976;9.834;2023-08-06T10:32:51;5.50;;;2.03;;
75823;SDS011;64457;51.976;9.834;2023-08-06T10:35:29;6.17;;;1.80;;
75823;SDS011;64457;51.976;9.834;2023-08-06T10:37:59;8.90;;;1.70;;
75823;SDS011;64457;51.976;9.834;2023-08-06T10:40:31;4.80;;;1.77;;
75823;SDS011;64457;51.976;9.834;2023-08-06T10:43:01;4.70;;;1.60;;
75823;SDS011;64457;51.976;9.834;2023-08-06T10:45:33;5.57;;;1.80;;
75823;SDS011;64457;51.976;9.834;2023-08-06T10:48:02;5.60;;;1.50;;
75823;SDS011;64457;51.976;9.834;2023-08-06T10:50:30;5.13;;;1.77;;
75823;SDS011;64457;51.976;9.834;2023-08-06T10:52:58;6.10;;;2.07;;
75823;SDS011;64457;51.976;9.834;2023-08-06T10:55:32;6.20;;;1.73;;
75823;SDS011;64457;51.976;9.834;2023-08-06T10:58:01;6.90;;;2.13;;
75823;SDS011;64457;51.976;9.834;2023-08-06T11:00:29;4.67;;;2.00;;
75823;SDS011;64457;51.976;9.834;2023-08-06T11:02:56;5.40;;;2.10;;
75823;SDS011;64457;51.976;9.834;2023-08-06T11:05:24;6.30;;;2.30;;
75823;SDS011;64457;51.976;9.834;2023-08-06T11:07:52;5.60;;;2.20;;
75823;SDS011;64457;51.976;9.834;2023-08-06T11:10:20;6.07;;;2.27;;
75823;SDS011;64457;51.976;9.834;2023-08-06T11:12:47;5.90;;;2.30;;
75823;SDS011;64457;51.976;9.834;2023-08-06T11:15:17;5.60;;;2.33;;
75823;SDS011;64457;51.976;9.834;2023-08-06T11:17:47;5.73;;;2.07;;
75823;SDS011;64457;51.976;9.834;2023-08-06T11:20:14;5.90;;;2.10;;
75823;SDS011;64457;51.976;9.834;2023-08-06T11:22:43;5.67;;;2.20;;
75823;SDS011;64457;51.976;9.834;2023-08-06T11:25:10;6.20;;;2.20;;
75823;SDS011;64457;51.976;9.834;2023-08-06T11:27:39;5.40;;;1.97;;
75823;SDS011;64457;51.976;9.834;2023-08-06T11:30:07;5.67;;;2.20;;
75823;SDS011;64457;51.976;9.834;2023-08-06T11:32:46;7.00;;;2.00;;
75823;SDS011;64457;51.976;9.834;2023-08-06T11:35:14;6.33;;;2.10;;
75823;SDS011;64457;51.976;9.834;2023-08-06T11:37:44;5.37;;;2.10;;
75823;SDS011;64457;51.976;9.834;2023-08-06T11:40:13;5.77;;;1.80;;
75823;SDS011;64457;51.976;9.834;2023-08-06T11:42:42;7.77;;;2.10;;
75823;SDS011;64457;51.976;9.834;2023-08-06T11:45:10;5.50;;;2.30;;
75823;SDS011;64457;51.976;9.834;2023-08-06T11:47:39;5.20;;;2.00;;
75823;SDS011;64457;51.976;9.834;2023-08-06T11:50:09;5.10;;;1.70;;
75823;SDS011;64457;51.976;9.834;2023-08-06T11:52:52;6.00;;;2.00;;
75823;SDS011;64457;51.976;9.834;2023-08-06T11:55:22;6.80;;;1.80;;
75823;SDS011;64457;51.976;9.834;2023-08-06T11:57:51;7.53;;;1.70;;
75823;SDS011;64457;51.976;9.834;2023-08-06T12:00:20;6.90;;;1.87;;
75823;SDS011;64457;51.976;9.834;2023-08-06T12:02:50;4.60;;;1.73;;
75823;SDS011;64457;51.976;9.834;2023-08-06T12:05:21;4.80;;;1.90;;
75823;SDS011;64457;51.976;9.834;2023-08-06T12:07:51;4.77;;;1.70;;
75823;SDS011;64457;51.976;9.834;2023-08-06T12:10:20;4.53;;;1.60;;
75823;SDS011;64457;51.976;9.834;2023-08-06T12:12:50;6.20;;;1.80;;
75823;SDS011;64457;51.976;9.834;2023-08-06T12:15:18;4.90;;;2.13;;
75823;SDS011;64457;51.976;9.834;2023-08-06T12:17:45;6.80;;;1.50;;
75823;SDS011;64457;51.976;9.834;2023-08-06T12:20:13;5.10;;;1.90;;
75823;SDS011;64457;51.976;9.834;2023-08-06T12:22:42;5.83;;;1.97;;
75823;SDS011;64457;51.976;9.834;2023-08-06T12:25:11;5.10;;;1.90;;
75823;SDS011;64457;51.976;9.834;2023-08-06T12:27:39;4.63;;;1.73;;
75823;SDS011;64457;51.976;9.834;2023-08-06T12:30:08;5.63;;;2.00;;
75823;SDS011;64457;51.976;9.834;2023-08-06T12:32:38;5.80;;;1.83;;
75823;SDS011;64457;51.976;9.834;2023-08-06T12:35:06;6.53;;;1.93;;
75823;SDS011;64457;51.976;9.834;2023-08-06T12:37:35;6.60;;;2.00;;
75823;SDS011;64457;51.976;9.834;2023-08-06T12:40:06;5.03;;;1.80;;
75823;SDS011;64457;51.976;9.834;2023-08-06T12:42:34;4.13;;;1.50;;
75823;SDS011;64457;51.976;9.834;2023-08-06T12:45:02;4.67;;;1.73;;
75823;SDS011;64457;51.976;9.834;2023-08-06T12:47:30;6.33;;;2.07;;
75823;SDS011;64457;51.976;9.834;2023-08-06T12:49:58;5.20;;;1.60;;
75823;SDS011;64457;51.976;9.834;2023-08-06T12:52:26;5.73;;;1.70;;
75823;SDS011;64457;51.976;9.834;2023-08-06T12:54:54;4.67;;;1.77;;
75823;SDS011;64457;51.976;9.834;2023-08-06T12:57:23;5.60;;;1.77;;
75823;SDS011;64457;51.976;9.834;2023-08-06T12:59:50;5.23;;;1.87;;
75823;SDS011;64457;51.976;9.834;2023-08-06T13:02:18;5.27;;;1.90;;
75823;SDS011;64457;51.976;9.834;2023-08-06T13:04:46;5.80;;;2.00;;
75823;SDS011;64457;51.976;9.834;2023-08-06T13:07:14;7.00;;;1.80;;
75823;SDS011;64457;51.976;9.834;2023-08-06T13:09:41;6.37;;;2.40;;
75823;SDS011;64457;51.976;9.834;2023-08-06T13:12:09;7.47;;;3.33;;
75823;SDS011;64457;51.976;9.834;2023-08-06T13:14:39;15.33;;;8.00;;
75823;SDS011;64457;51.976;9.834;2023-08-06T13:17:07;6.27;;;2.53;;
75823;SDS011;64457;51.976;9.834;2023-08-06T13:19:35;9.10;;;2.80;;
75823;SDS011;64457;51.976;9.834;2023-08-06T13:22:03;8.60;;;3.03;;
75823;SDS011;64457;51.976;9.834;2023-08-06T13:24:33;7.93;;;2.93;;
75823;SDS011;64457;51.976;9.834;2023-08-06T13:27:01;5.33;;;1.90;;
75823;SDS011;64457;51.976;9.834;2023-08-06T13:29:29;6.40;;;2.10;;
75823;SDS011;64457;51.976;9.834;2023-08-06T13:31:59;5.20;;;1.70;;
75823;SDS011;64457;51.976;9.834;2023-08-06T13:34:27;5.10;;;1.70;;
75823;SDS011;64457;51.976;9.834;2023-08-06T13:36:54;5.80;;;1.97;;
75823;SDS011;64457;51.976;9.834;2023-08-06T13:39:23;6.93;;;1.87;;
75823;SDS011;64457;51.976;9.834;2023-08-06T13:41:50;4.57;;;1.63;;
75823;SDS011;64457;51.976;9.834;2023-08-06T13:44:18;8.20;;;2.00;;
75823;SDS011;64457;51.976;9.834;2023-08-06T13:46:45;6.50;;;2.10;;
75823;SDS011;64457;51.976;9.834;2023-08-06T13:49:15;6.17;;;1.90;;
75823;SDS011;64457;51.976;9.834;2023-08-06T13:51:43;6.30;;;2.33;;
75823;SDS011;64457;51.976;9.834;2023-08-06T13:54:10;8.33;;;2.40;;
75823;SDS011;64457;51.976;9.834;2023-08-06T13:56:39;8.13;;;2.00;;
75823;SDS011;64457;51.976;9.834;2023-08-06T13:59:06;6.97;;;2.10;;
75823;SDS011;64457;51.976;9.834;2023-08-06T14:01:34;6.07;;;1.90;;
75823;SDS011;64457;51.976;9.834;2023-08-06T14:04:03;4.33;;;1.60;;
75823;SDS011;64457;51.976;9.834;2023-08-06T14:06:32;5.13;;;1.87;;
75823;SDS011;64457;51.976;9.834;2023-08-06T14:09:00;5.27;;;1.70;;
75823;SDS011;64457;51.976;9.834;2023-08-06T14:11:28;5.67;;;1.50;;
75823;SDS011;64457;51.976;9.834;2023-08-06T14:13:56;4.67;;;1.47;;
75823;SDS011;64457;51.976;9.834;2023-08-06T14:16:23;4.70;;;1.40;;
75823;SDS011;64457;51.976;9.834;2023-08-06T14:18:51;7.00;;;1.73;;
75823;SDS011;64457;51.976;9.834;2023-08-06T14:21:19;5.73;;;1.63;;
75823;SDS011;64457;51.976;9.834;2023-08-06T14:23:49;4.77;;;1.47;;
75823;SDS011;64457;51.976;9.834;2023-08-06T14:26:17;5.30;;;1.67;;
75823;SDS011;64457;51.976;9.834;2023-08-06T14:28:45;4.57;;;1.80;;
75823;SDS011;64457;51.976;9.834;2023-08-06T14:31:12;4.47;;;1.50;;
75823;SDS011;64457;51.976;9.834;2023-08-06T14:33:40;6.77;;;2.23;;
75823;SDS011;64457;51.976;9.834;2023-08-06T14:36:07;4.93;;;1.80;;
75823;SDS011;64457;51.976;9.834;2023-08-06T14:38:35;4.90;;;2.23;;
75823;SDS011;64457;51.976;9.834;2023-08-06T14:41:05;4.90;;;1.90;;
75823;SDS011;64457;51.976;9.834;2023-08-06T14:43:32;5.30;;;2.17;;
75823;SDS011;64457;51.976;9.834;2023-08-06T14:46:00;4.80;;;1.73;;
75823;SDS011;64457;51.976;9.834;2023-08-06T14:48:28;5.00;;;2.10;;
75823;SDS011;64457;51.976;9.834;2023-08-06T14:50:57;6.10;;;2.60;;
75823;SDS011;64457;51.976;9.834;2023-08-06T14:53:25;5.57;;;2.30;;
75823;SDS011;64457;51.976;9.834;2023-08-06T14:55:53;5.20;;;2.40;;